createdAt,value
2022-12-01T00:00:18.031Z,1.04
2022-12-01T00:01:18.177Z,1.04
2022-12-01T00:02:18.417Z,1.04
2022-12-01T00:03:18.682Z,1.04
2022-12-01T00:04:18.641Z,1.04
2022-12-01T00:05:18.787Z,1.04
2022-12-01T00:06:18.942Z,1.04
2022-12-01T00:07:19.193Z,1.04
2022-12-01T00:08:19.234Z,1.04
2022-12-01T00:09:20.076Z,1.04
2022-12-01T00:10:19.495Z,1.04
2022-12-01T00:11:19.615Z,1.04
2022-12-01T00:12:19.755Z,1.04
2022-12-01T00:13:19.860Z,1.04
2022-12-01T00:14:19.956Z,1.04
2022-12-01T00:15:20.110Z,1.04
2022-12-01T00:16:20.270Z,1.04
2022-12-01T00:17:20.413Z,1.04
2022-12-01T00:18:20.562Z,1.04
2022-12-01T00:19:20.676Z,1.04
2022-12-01T00:20:20.818Z,1.04
2022-12-01T00:21:20.977Z,1.04
2022-12-01T00:22:21.143Z,1.04
2022-12-01T00:23:21.276Z,1.04
2022-12-01T00:24:21.415Z,1.04
2022-12-01T00:25:21.575Z,1.04
2022-12-01T00:26:21.731Z,1.04
2022-12-01T00:27:21.821Z,1.04
2022-12-01T00:28:21.997Z,1.04
2022-12-01T00:29:22.229Z,1.04
2022-12-01T00:30:22.324Z,1.04
2022-12-01T00:31:22.509Z,1.04
2022-12-01T00:32:22.579Z,1.04
2022-12-01T00:33:22.739Z,1.04
2022-12-01T00:34:22.887Z,1.04
2022-12-01T00:35:23.039Z,1.04
2022-12-01T00:36:23.207Z,1.04
2022-12-01T00:37:23.339Z,1.04
2022-12-01T00:38:23.491Z,1.04
2022-12-01T00:39:23.652Z,1.04
2022-12-01T00:40:23.796Z,1.04
2022-12-01T00:41:23.969Z,1.04
2022-12-01T00:42:24.055Z,1.04
2022-12-01T00:43:24.203Z,1.04
2022-12-01T00:44:24.313Z,1.04
2022-12-01T00:45:24.456Z,1.04
2022-12-01T00:46:24.675Z,1.04
2022-12-01T00:47:24.794Z,1.04
2022-12-01T00:48:24.975Z,1.04
2022-12-01T00:49:25.211Z,1.04
2022-12-01T00:50:25.367Z,1.04
2022-12-01T00:51:25.525Z,1.04
2022-12-01T00:52:25.655Z,1.04
2022-12-01T00:53:25.822Z,1.04
2022-12-01T00:54:25.926Z,1.04
2022-12-01T00:55:26.063Z,1.04
2022-12-01T00:56:26.220Z,1.04
2022-12-01T00:57:26.370Z,1.04
2022-12-01T00:58:26.524Z,1.04
2022-12-01T00:59:26.671Z,1.04
2022-12-01T01:00:26.831Z,1.04
2022-12-01T01:01:27.063Z,1.04
2022-12-01T01:02:27.169Z,1.04
2022-12-01T01:03:27.194Z,1.04
2022-12-01T01:04:27.333Z,1.04
2022-12-01T01:05:27.433Z,1.04
2022-12-01T01:06:27.582Z,1.04
2022-12-01T01:07:27.806Z,1.04
2022-12-01T01:08:27.884Z,1.04
2022-12-01T01:09:27.990Z,1.04
2022-12-01T01:10:28.143Z,1.04
2022-12-01T01:11:28.247Z,1.04
2022-12-01T01:12:28.385Z,1.04
2022-12-01T01:13:28.544Z,1.04
2022-12-01T01:14:28.695Z,1.04
2022-12-01T01:15:28.807Z,1.04
2022-12-01T01:16:28.979Z,1.04
2022-12-01T01:17:29.086Z,1.04
2022-12-01T01:18:29.254Z,1.04
2022-12-01T01:19:29.405Z,1.04
2022-12-01T01:20:29.502Z,1.04
2022-12-01T01:21:29.651Z,1.04
2022-12-01T01:22:29.804Z,1.04
2022-12-01T01:23:29.955Z,1.04
2022-12-01T01:24:30.060Z,1.04
2022-12-01T01:25:30.222Z,1.04
2022-12-01T01:26:30.376Z,1.04
2022-12-01T01:27:30.511Z,1.04
2022-12-01T01:28:30.619Z,1.04
2022-12-01T01:29:30.712Z,1.04
2022-12-01T01:30:30.925Z,1.04
2022-12-01T01:31:31.014Z,1.04
2022-12-01T01:32:31.183Z,1.04
2022-12-01T01:33:31.322Z,1.04
2022-12-01T01:34:31.472Z,1.04
2022-12-01T01:35:31.642Z,1.04
2022-12-01T01:36:31.801Z,1.04
2022-12-01T01:37:31.913Z,1.04
2022-12-01T01:38:32.024Z,1.04
2022-12-01T01:39:32.183Z,1.04
2022-12-01T01:40:32.330Z,1.04
2022-12-01T01:41:32.477Z,1.04
2022-12-01T01:42:33.167Z,1.04
2022-12-01T01:43:32.740Z,1.04
2022-12-01T01:44:32.887Z,1.04
2022-12-01T01:45:33.044Z,1.04
2022-12-01T01:46:33.232Z,1.04
2022-12-01T01:47:33.287Z,1.04
2022-12-01T01:48:33.437Z,1.04
2022-12-01T01:49:33.609Z,1.04
2022-12-01T01:50:33.747Z,1.04
2022-12-01T01:51:33.897Z,1.04
2022-12-01T01:52:34.055Z,1.04
2022-12-01T01:53:34.217Z,1.04
2022-12-01T01:54:34.354Z,1.04
2022-12-01T01:55:34.504Z,1.04
2022-12-01T01:56:34.654Z,1.04
2022-12-01T01:57:34.772Z,1.04
2022-12-01T01:58:34.854Z,1.04
2022-12-01T01:59:34.973Z,1.04
2022-12-01T02:00:35.110Z,1.04
2022-12-01T02:01:35.304Z,1.04
2022-12-01T02:02:35.455Z,1.04
2022-12-01T02:03:35.569Z,1.04
2022-12-01T02:04:35.718Z,1.04
2022-12-01T02:05:35.862Z,1.04
2022-12-01T02:06:35.962Z,1.04
2022-12-01T02:07:36.182Z,1.04
2022-12-01T02:08:36.240Z,1.04
2022-12-01T02:09:36.342Z,1.04
2022-12-01T02:10:36.512Z,1.04
2022-12-01T02:11:36.624Z,1.04
2022-12-01T02:12:36.783Z,1.04
2022-12-01T02:13:36.881Z,1.04
2022-12-01T02:14:37.036Z,1.04
2022-12-01T02:15:37.168Z,1.04
2022-12-01T02:16:37.308Z,1.04
2022-12-01T02:17:41.482Z,1.04
2022-12-01T02:18:37.540Z,1.04
2022-12-01T02:19:37.644Z,1.04
2022-12-01T02:20:37.784Z,1.04
2022-12-01T02:21:37.888Z,1.04
2022-12-01T02:22:38.045Z,1.04
2022-12-01T02:23:38.192Z,1.04
2022-12-01T02:24:38.343Z,1.04
2022-12-01T02:25:38.507Z,1.04
2022-12-01T02:26:38.655Z,1.04
2022-12-01T02:27:38.754Z,1.04
2022-12-01T02:28:38.904Z,1.04
2022-12-01T02:29:39.059Z,1.04
2022-12-01T02:30:39.257Z,1.04
2022-12-01T02:31:39.349Z,1.04
2022-12-01T02:32:39.469Z,1.04
2022-12-01T02:33:39.607Z,1.04
2022-12-01T02:34:39.754Z,1.04
2022-12-01T02:35:39.863Z,1.04
2022-12-01T02:36:39.970Z,1.04
2022-12-01T02:37:40.114Z,1.04
2022-12-01T02:38:40.271Z,1.04
2022-12-01T02:39:40.411Z,1.04
2022-12-01T02:40:40.568Z,1.04
2022-12-01T02:41:40.693Z,1.04
2022-12-01T02:42:40.819Z,1.04
2022-12-01T02:43:40.977Z,1.04
2022-12-01T02:44:41.131Z,1.04
2022-12-01T02:45:41.273Z,1.04
2022-12-01T02:46:41.382Z,1.04
2022-12-01T02:47:41.537Z,1.04
2022-12-01T02:48:41.684Z,1.04
2022-12-01T02:49:41.837Z,1.04
2022-12-01T02:50:41.987Z,1.04
2022-12-01T02:51:42.144Z,1.04
2022-12-01T02:52:42.235Z,1.04
2022-12-01T02:53:42.390Z,1.04
2022-12-01T02:54:42.536Z,1.04
2022-12-01T02:55:42.690Z,1.04
2022-12-01T02:56:42.847Z,1.04
2022-12-01T02:57:42.989Z,1.04
2022-12-01T02:58:43.142Z,1.04
2022-12-01T02:59:43.258Z,1.04
2022-12-01T03:00:43.392Z,1.04
2022-12-01T03:01:43.573Z,1.04
2022-12-01T03:02:43.892Z,1.04
2022-12-01T03:03:43.856Z,1.04
2022-12-01T03:04:44.000Z,1.04
2022-12-01T03:05:44.156Z,1.04
2022-12-01T03:06:44.304Z,1.04
2022-12-01T03:07:44.544Z,1.04
2022-12-01T03:08:44.627Z,1.04
2022-12-01T03:09:44.776Z,1.04
2022-12-01T03:10:44.918Z,1.04
2022-12-01T03:11:45.017Z,1.04
2022-12-01T03:12:45.164Z,1.04
2022-12-01T03:13:45.319Z,1.04
2022-12-01T03:14:45.466Z,1.04
2022-12-01T03:15:45.624Z,1.04
2022-12-01T03:16:45.702Z,1.04
2022-12-01T03:17:45.867Z,1.04
2022-12-01T03:18:45.989Z,1.04
2022-12-01T03:19:46.566Z,1.04
2022-12-01T03:20:46.285Z,1.04
2022-12-01T03:21:46.430Z,1.04
2022-12-01T03:22:46.580Z,1.04
2022-12-01T03:23:46.732Z,1.04
2022-12-01T03:24:46.899Z,1.04
2022-12-01T03:25:47.045Z,1.04
2022-12-01T03:26:47.137Z,1.04
2022-12-01T03:28:13.769Z,1.04
2022-12-01T03:28:47.442Z,1.04
2022-12-01T03:29:47.991Z,1.04
2022-12-01T03:30:47.873Z,1.04
2022-12-01T03:31:47.881Z,1.04
2022-12-01T03:32:47.935Z,1.04
2022-12-01T03:33:48.117Z,1.04
2022-12-01T03:34:48.258Z,1.04
2022-12-01T03:35:48.363Z,1.04
2022-12-01T03:36:48.532Z,1.04
2022-12-01T03:37:48.648Z,1.04
2022-12-01T03:38:48.803Z,1.04
2022-12-01T03:39:49.221Z,1.04
2022-12-01T03:40:49.108Z,1.04
2022-12-01T03:41:49.277Z,1.04
2022-12-01T03:42:49.418Z,1.04
2022-12-01T03:43:49.557Z,1.04
2022-12-01T03:44:49.710Z,1.04
2022-12-01T03:45:49.866Z,1.04
2022-12-01T03:46:49.961Z,1.04
2022-12-01T03:47:50.113Z,1.04
2022-12-01T03:48:50.232Z,1.04
2022-12-01T03:49:50.591Z,1.04
2022-12-01T03:50:50.526Z,1.04
2022-12-01T03:51:50.677Z,1.04
2022-12-01T03:52:50.825Z,1.04
2022-12-01T03:53:50.993Z,1.04
2022-12-01T03:54:51.128Z,1.04
2022-12-01T03:55:51.230Z,1.04
2022-12-01T03:56:51.385Z,1.04
2022-12-01T03:57:51.518Z,1.04
2022-12-01T03:58:51.623Z,1.04
2022-12-01T03:59:51.911Z,1.04
2022-12-01T04:00:51.920Z,1.04
2022-12-01T04:01:52.125Z,1.04
2022-12-01T04:02:52.262Z,1.04
2022-12-01T04:03:52.389Z,1.04
2022-12-01T04:04:52.545Z,1.04
2022-12-01T04:05:52.692Z,1.04
2022-12-01T04:06:52.848Z,1.04
2022-12-01T04:07:53.160Z,1.04
2022-12-01T04:08:53.152Z,1.04
2022-12-01T04:09:53.332Z,1.04
2022-12-01T04:10:53.449Z,1.04
2022-12-01T04:11:53.599Z,1.04
2022-12-01T04:12:53.755Z,1.04
2022-12-01T04:13:53.903Z,1.04
2022-12-01T04:14:54.060Z,1.04
2022-12-01T04:15:54.254Z,1.04
2022-12-01T04:16:54.307Z,1.04
2022-12-01T04:17:54.469Z,1.04
2022-12-01T04:18:54.607Z,1.04
2022-12-01T04:19:54.763Z,1.04
2022-12-01T04:20:54.913Z,1.04
2022-12-01T04:21:55.075Z,1.04
2022-12-01T04:22:55.174Z,1.04
2022-12-01T04:23:55.320Z,1.04
2022-12-01T04:24:55.474Z,1.04
2022-12-01T04:25:55.614Z,1.04
2022-12-01T04:26:55.718Z,1.04
2022-12-01T04:27:55.861Z,1.04
2022-12-01T04:28:56.029Z,1.04
2022-12-01T04:29:56.172Z,1.04
2022-12-01T04:30:56.341Z,1.04
2022-12-01T04:31:56.381Z,1.04
2022-12-01T04:32:56.485Z,1.04
2022-12-01T04:33:56.639Z,1.04
2022-12-01T04:34:56.791Z,1.04
2022-12-01T04:35:56.944Z,1.04
2022-12-01T04:36:57.042Z,1.04
2022-12-01T04:37:57.186Z,1.04
2022-12-01T04:38:57.336Z,1.04
2022-12-01T04:39:57.488Z,1.04
2022-12-01T04:40:57.644Z,1.04
2022-12-01T04:41:57.802Z,1.04
2022-12-01T04:42:57.951Z,1.04
2022-12-01T04:43:58.096Z,1.04
2022-12-01T04:44:58.250Z,1.04
2022-12-01T04:45:58.384Z,1.04
2022-12-01T04:46:58.550Z,1.04
2022-12-01T04:47:58.649Z,1.04
2022-12-01T04:48:58.804Z,1.04
2022-12-01T04:49:58.957Z,1.04
2022-12-01T04:50:59.105Z,1.04
2022-12-01T04:51:59.255Z,1.04
2022-12-01T04:52:59.404Z,1.04
2022-12-01T04:53:59.575Z,1.04
2022-12-01T04:54:59.707Z,1.04
2022-12-01T04:55:59.858Z,1.04
2022-12-01T04:57:00.008Z,1.04
2022-12-01T04:58:00.167Z,1.04
2022-12-01T04:59:00.275Z,1.04
2022-12-01T05:00:00.430Z,1.04
2022-12-01T05:01:00.646Z,1.04
2022-12-01T05:02:00.780Z,1.04
2022-12-01T05:03:00.882Z,1.04
2022-12-01T05:04:01.030Z,1.04
2022-12-01T05:05:01.139Z,1.04
2022-12-01T05:06:01.284Z,1.04
2022-12-01T05:07:01.432Z,1.04
2022-12-01T05:08:01.647Z,1.04
2022-12-01T05:09:01.731Z,1.04
2022-12-01T05:10:01.891Z,1.04
2022-12-01T05:11:02.037Z,1.04
2022-12-01T05:12:02.186Z,1.04
2022-12-01T05:13:02.340Z,1.04
2022-12-01T05:14:02.499Z,1.04
2022-12-01T05:15:02.648Z,1.04
2022-12-01T05:16:02.773Z,1.04
2022-12-01T05:17:02.911Z,1.04
2022-12-01T05:18:03.015Z,1.04
2022-12-01T05:19:03.152Z,1.04
2022-12-01T05:20:03.308Z,1.04
2022-12-01T05:21:03.435Z,1.04
2022-12-01T05:22:03.674Z,1.04
2022-12-01T05:23:05.580Z,1.04
2022-12-01T05:24:03.947Z,1.04
2022-12-01T05:25:04.112Z,1.04
2022-12-01T05:26:04.201Z,1.04
2022-12-01T05:27:04.364Z,1.04
2022-12-01T05:28:04.524Z,1.04
2022-12-01T05:29:04.666Z,1.04
2022-12-01T05:30:04.825Z,1.04
2022-12-01T05:31:05.033Z,1.04
2022-12-01T05:32:05.170Z,1.04
2022-12-01T05:33:05.234Z,1.04
2022-12-01T05:34:05.389Z,1.04
2022-12-01T05:35:05.537Z,1.04
2022-12-01T05:36:05.635Z,1.04
2022-12-01T05:37:05.780Z,1.04
2022-12-01T05:38:07.923Z,1.04
2022-12-01T05:39:06.040Z,1.04
2022-12-01T05:40:06.144Z,1.04
2022-12-01T05:41:06.243Z,1.04
2022-12-01T05:42:06.389Z,1.04
2022-12-01T05:43:06.507Z,1.04
2022-12-01T05:44:06.644Z,1.04
2022-12-01T05:45:07.299Z,1.04
2022-12-01T05:46:06.984Z,1.04
2022-12-01T05:47:07.085Z,1.04
2022-12-01T05:48:07.805Z,1.04
2022-12-01T05:49:07.341Z,1.04
2022-12-01T05:50:07.481Z,1.04
2022-12-01T05:51:07.611Z,1.04
2022-12-01T05:52:07.732Z,1.04
2022-12-01T05:53:07.849Z,1.04
2022-12-01T05:54:08.002Z,1.04
2022-12-01T05:55:08.202Z,1.04
2022-12-01T05:56:08.320Z,1.04
2022-12-01T05:57:08.409Z,1.04
2022-12-01T05:58:08.562Z,1.04
2022-12-01T05:59:08.708Z,1.04
2022-12-01T06:00:08.846Z,1.04
2022-12-01T06:01:08.959Z,1.04
2022-12-01T06:02:09.136Z,1.04
2022-12-01T06:03:09.217Z,1.04
2022-12-01T06:04:09.380Z,1.04
2022-12-01T06:05:09.468Z,1.04
2022-12-01T06:06:09.587Z,1.04
2022-12-01T06:07:09.715Z,1.04
2022-12-01T06:08:09.888Z,1.04
2022-12-01T06:09:10.033Z,1.04
2022-12-01T06:10:10.142Z,1.04
2022-12-01T06:11:10.275Z,2
2022-12-01T06:12:10.376Z,2
2022-12-01T06:13:10.534Z,2
2022-12-01T06:14:10.690Z,2
2022-12-01T06:15:10.840Z,2
2022-12-01T06:16:10.975Z,3.04
2022-12-01T06:17:11.139Z,3.04
2022-12-01T06:18:11.282Z,3.04
2022-12-01T06:19:11.440Z,4
2022-12-01T06:20:11.595Z,5.04
2022-12-01T06:21:11.754Z,5.04
2022-12-01T06:22:11.897Z,6
2022-12-01T06:23:12.041Z,7.04
2022-12-01T06:24:12.201Z,9.04
2022-12-01T06:25:12.355Z,10
2022-12-01T06:26:12.501Z,12
2022-12-01T06:27:12.661Z,14
2022-12-01T06:28:12.806Z,16
2022-12-01T06:29:12.959Z,19.04
2022-12-01T06:30:13.065Z,22
2022-12-01T06:31:13.192Z,25.04
2022-12-01T06:32:13.321Z,27.04
2022-12-01T06:33:13.459Z,31.04
2022-12-01T06:34:13.620Z,34
2022-12-01T06:35:13.764Z,36
2022-12-01T06:36:13.911Z,40
2022-12-01T06:37:14.077Z,42
2022-12-01T06:38:14.229Z,45.04
2022-12-01T06:39:14.383Z,49.04
2022-12-01T06:40:14.532Z,53.04
2022-12-01T06:41:14.673Z,63.04
2022-12-01T06:42:14.828Z,68
2022-12-01T06:43:14.979Z,73.04
2022-12-01T06:44:15.128Z,82
2022-12-01T06:45:15.274Z,92
2022-12-01T06:46:15.449Z,100
2022-12-01T06:47:15.525Z,110
2022-12-01T06:48:15.682Z,120
2022-12-01T06:49:15.780Z,131.04
2022-12-01T06:50:15.930Z,135.04
2022-12-01T06:51:16.099Z,139.04
2022-12-01T06:52:16.242Z,159.04
2022-12-01T06:53:16.388Z,177.12
2022-12-01T06:54:16.539Z,184
2022-12-01T06:55:16.643Z,189.12
2022-12-01T06:56:16.813Z,192
2022-12-01T06:57:16.964Z,207.04
2022-12-01T06:58:17.104Z,217.12
2022-12-01T06:59:17.200Z,228
2022-12-01T07:00:17.342Z,248
2022-12-01T07:01:17.525Z,270.08
2022-12-01T07:02:17.623Z,286.08
2022-12-01T07:03:17.756Z,311.04
2022-12-01T07:04:17.918Z,340.16
2022-12-01T07:05:18.015Z,354.24
2022-12-01T07:06:18.163Z,382.08
2022-12-01T07:07:18.313Z,414.08
2022-12-01T07:08:18.520Z,434.24
2022-12-01T07:09:18.564Z,457.28
2022-12-01T07:10:18.715Z,483.2
2022-12-01T07:11:18.867Z,509.12
2022-12-01T07:12:18.995Z,533.12
2022-12-01T07:13:19.100Z,556.16
2022-12-01T07:14:19.269Z,577.28
2022-12-01T07:15:19.428Z,607.04
2022-12-01T07:16:19.628Z,625.28
2022-12-01T07:17:19.675Z,637.12
2022-12-01T07:18:19.826Z,638.08
2022-12-01T07:19:19.983Z,671.36
2022-12-01T07:20:20.136Z,720
2022-12-01T07:21:20.299Z,777.6
2022-12-01T07:22:20.441Z,812.16
2022-12-01T07:23:20.589Z,894.08
2022-12-01T07:24:20.746Z,1006.08
2022-12-01T07:25:20.883Z,1068.16
2022-12-01T07:26:21.051Z,1107.2
2022-12-01T07:27:21.192Z,1180.16
2022-12-01T07:28:21.338Z,1230.08
2022-12-01T07:29:21.491Z,1224.32
2022-12-01T07:30:25.470Z,1244.16
2022-12-01T07:31:21.784Z,1241.6
2022-12-01T07:32:21.904Z,1265.28
2022-12-01T07:33:22.048Z,1263.36
2022-12-01T07:34:22.200Z,1255.04
2022-12-01T07:35:22.357Z,1252.48
2022-12-01T07:36:22.501Z,1265.28
2022-12-01T07:37:22.661Z,1290.24
2022-12-01T07:38:22.813Z,1381.12
2022-12-01T07:39:22.951Z,1418.24
2022-12-01T07:40:23.105Z,1419.52
2022-12-01T07:41:23.243Z,1397.76
2022-12-01T07:42:23.350Z,1340.16
2022-12-01T07:43:23.465Z,1303.04
2022-12-01T07:44:23.621Z,1331.2
2022-12-01T07:45:23.764Z,1431.04
2022-12-01T07:46:24.409Z,1533.44
2022-12-01T07:47:24.019Z,1579.52
2022-12-01T07:48:24.176Z,1546.24
2022-12-01T07:49:24.323Z,1507.84
2022-12-01T07:50:24.423Z,1486.08
2022-12-01T07:51:24.588Z,1504
2022-12-01T07:52:24.738Z,1528.32
2022-12-01T07:53:24.903Z,1564.16
2022-12-01T07:54:25.024Z,1690.88
2022-12-01T07:55:25.181Z,1862.4
2022-12-01T07:56:25.344Z,1939.2
2022-12-01T07:57:25.482Z,1989.12
2022-12-01T07:58:25.647Z,2049.28
2022-12-01T07:59:25.791Z,2168.32
2022-12-01T08:00:25.959Z,2220.8
2022-12-01T08:01:26.118Z,2191.36
2022-12-01T08:02:26.203Z,2247.68
2022-12-01T08:03:26.277Z,2274.56
2022-12-01T08:04:26.428Z,2316.8
2022-12-01T08:05:26.531Z,2284.8
2022-12-01T08:06:26.706Z,2242.56
2022-12-01T08:07:29.791Z,2150.4
2022-12-01T08:08:27.013Z,2223.36
2022-12-01T08:09:27.156Z,2277.12
2022-12-01T08:10:27.312Z,2298.88
2022-12-01T08:11:27.456Z,2319.36
2022-12-01T08:12:27.609Z,2373.12
2022-12-01T08:13:27.715Z,2346.24
2022-12-01T08:14:27.863Z,2311.68
2022-12-01T08:15:28.094Z,2266.88
2022-12-01T08:16:28.156Z,2361.6
2022-12-01T08:17:28.251Z,2437.12
2022-12-01T08:18:28.365Z,2563.84
2022-12-01T08:19:28.520Z,2700.8
2022-12-01T08:20:28.686Z,2982.4
2022-12-01T08:21:28.724Z,3128.32
2022-12-01T08:22:28.863Z,3220.48
2022-12-01T08:23:29.032Z,3256.32
2022-12-01T08:24:29.177Z,3453.44
2022-12-01T08:25:29.324Z,3535.36
2022-12-01T08:26:29.480Z,3604.48
2022-12-01T08:27:29.618Z,3727.36
2022-12-01T08:28:29.775Z,3914.24
2022-12-01T08:29:29.932Z,4162.56
2022-12-01T08:30:30.162Z,4400.64
2022-12-01T08:31:30.270Z,4515.84
2022-12-01T08:32:30.317Z,4715.52
2022-12-01T08:33:30.484Z,5030.4
2022-12-01T08:34:30.622Z,5483.52
2022-12-01T08:35:30.796Z,6174.72
2022-12-01T08:36:30.952Z,7004.16
2022-12-01T08:37:31.057Z,7685.12
2022-12-01T08:38:31.193Z,8140.8
2022-12-01T08:39:31.344Z,8320
2022-12-01T08:40:31.513Z,8478.72
2022-12-01T08:41:31.649Z,8949.76
2022-12-01T08:42:31.806Z,9159.68
2022-12-01T08:43:56.405Z,9231.359
2022-12-01T08:44:32.142Z,9354.24
2022-12-01T08:45:32.254Z,9610.24
2022-12-01T08:46:32.440Z,9676.8
2022-12-01T08:47:32.464Z,9687.04
2022-12-01T08:48:32.604Z,9492.479
2022-12-01T08:49:32.773Z,9395.2
2022-12-01T08:50:32.914Z,9241.6
2022-12-01T08:51:33.068Z,8847.359
2022-12-01T08:52:33.172Z,8683.52
2022-12-01T08:53:33.317Z,8652.8
2022-12-01T08:54:33.418Z,8412.16
2022-12-01T08:55:33.575Z,8058.88
2022-12-01T08:56:33.714Z,7700.48
2022-12-01T08:57:33.887Z,7475.2
2022-12-01T08:58:34.046Z,7188.48
2022-12-01T08:59:34.177Z,6850.56
2022-12-01T09:00:34.312Z,6594.56
2022-12-01T09:01:34.527Z,6481.92
2022-12-01T09:02:34.760Z,6384.64
2022-12-01T09:03:34.728Z,6364.16
2022-12-01T09:04:34.880Z,6379.52
2022-12-01T09:05:34.985Z,6210.56
2022-12-01T09:06:35.143Z,6046.72
2022-12-01T09:07:35.322Z,5841.92
2022-12-01T09:08:35.441Z,5678.08
2022-12-01T09:09:35.588Z,5529.6
2022-12-01T09:10:35.740Z,5555.2
2022-12-01T09:11:35.892Z,5647.36
2022-12-01T09:12:36.245Z,5795.84
2022-12-01T09:13:36.393Z,5888
2022-12-01T09:14:36.559Z,5928.96
2022-12-01T09:15:36.691Z,5944.32
2022-12-01T09:16:36.849Z,5923.84
2022-12-01T09:17:36.966Z,5826.56
2022-12-01T09:18:37.131Z,5877.76
2022-12-01T09:19:37.260Z,5949.44
2022-12-01T09:20:37.404Z,5964.8
2022-12-01T09:21:38.051Z,6067.2
2022-12-01T09:22:37.691Z,6220.8
2022-12-01T09:23:38.319Z,6297.6
2022-12-01T09:24:37.995Z,6312.96
2022-12-01T09:25:38.159Z,6645.76
2022-12-01T09:26:38.281Z,6717.44
2022-12-01T09:27:38.408Z,6717.44
2022-12-01T09:28:38.570Z,6809.6
2022-12-01T09:29:38.706Z,6743.04
2022-12-01T09:30:38.853Z,6584.32
2022-12-01T09:31:38.993Z,6568.96
2022-12-01T09:32:39.114Z,6743.04
2022-12-01T09:33:39.221Z,6860.8
2022-12-01T09:34:39.385Z,6717.44
2022-12-01T09:35:39.670Z,6563.84
2022-12-01T09:36:39.851Z,6579.2
2022-12-01T09:37:39.979Z,6645.76
2022-12-01T09:38:40.130Z,6727.68
2022-12-01T09:39:40.227Z,6855.68
2022-12-01T09:40:40.329Z,6865.92
2022-12-01T09:41:40.482Z,6912
2022-12-01T09:42:40.577Z,6876.16
2022-12-01T09:43:40.730Z,6686.72
2022-12-01T09:44:40.886Z,6297.6
2022-12-01T09:45:41.027Z,6056.96
2022-12-01T09:46:41.268Z,5893.12
2022-12-01T09:47:41.328Z,5775.36
2022-12-01T09:48:41.431Z,5529.6
2022-12-01T09:49:41.537Z,5125.12
2022-12-01T09:50:41.690Z,4759.04
2022-12-01T09:51:41.812Z,4526.08
2022-12-01T09:52:41.946Z,4326.4
2022-12-01T09:53:42.112Z,4180.48
2022-12-01T09:54:42.253Z,4157.44
2022-12-01T09:55:42.404Z,4129.28
2022-12-01T09:56:42.551Z,3996.16
2022-12-01T09:57:42.708Z,3939.84
2022-12-01T09:58:42.864Z,3852.8
2022-12-01T09:59:42.959Z,3786.24
2022-12-01T10:00:43.129Z,3842.56
2022-12-01T10:01:43.234Z,3962.88
2022-12-01T10:02:43.357Z,4180.48
2022-12-01T10:03:43.518Z,4439.04
2022-12-01T10:04:43.664Z,4608
2022-12-01T10:06:03.264Z,4723.2
2022-12-01T10:06:43.976Z,4925.44
2022-12-01T10:07:44.174Z,5268.48
2022-12-01T10:08:44.274Z,5534.72
2022-12-01T10:09:44.379Z,5847.04
2022-12-01T10:10:44.538Z,6118.4
2022-12-01T10:11:44.738Z,6425.6
2022-12-01T10:12:44.797Z,6778.88
2022-12-01T10:13:44.880Z,7029.76
2022-12-01T10:14:45.035Z,7244.8
2022-12-01T10:15:45.166Z,7336.96
2022-12-01T10:16:45.332Z,7372.8
2022-12-01T10:17:45.495Z,7331.84
2022-12-01T10:18:45.657Z,7500.8
2022-12-01T10:19:45.784Z,7541.76
2022-12-01T10:20:45.944Z,7562.24
2022-12-01T10:21:46.048Z,7823.36
2022-12-01T10:22:46.432Z,8258.56
2022-12-01T10:23:46.542Z,8693.76
2022-12-01T10:24:46.698Z,9594.88
2022-12-01T10:25:46.855Z,9379.84
2022-12-01T10:26:47.000Z,10024.96
2022-12-01T10:27:47.303Z,9840.64
2022-12-01T10:28:47.245Z,9425.92
2022-12-01T10:29:48.204Z,8565.76
2022-12-01T10:30:47.486Z,8253.44
2022-12-01T10:31:47.690Z,7838.72
2022-12-01T10:32:47.822Z,7495.68
2022-12-01T10:33:47.962Z,7695.36
2022-12-01T10:34:48.120Z,8038.4
2022-12-01T10:35:48.255Z,8058.88
2022-12-01T10:36:48.412Z,7756.8
2022-12-01T10:37:48.659Z,7403.52
2022-12-01T10:38:48.719Z,7480.32
2022-12-01T10:39:49.142Z,7664.64
2022-12-01T10:40:49.016Z,8135.68
2022-12-01T10:41:49.172Z,8442.88
2022-12-01T10:42:49.324Z,8514.56
2022-12-01T10:43:49.469Z,8371.2
2022-12-01T10:44:49.643Z,8156.16
2022-12-01T10:45:49.818Z,8074.24
2022-12-01T10:46:49.940Z,8002.56
2022-12-01T10:47:51.795Z,7910.4
2022-12-01T10:48:50.140Z,8012.8
2022-12-01T10:49:50.589Z,7900.16
2022-12-01T10:50:50.388Z,7587.84
2022-12-01T10:51:50.548Z,7710.72
2022-12-01T10:52:50.690Z,7951.36
2022-12-01T10:53:50.828Z,7879.68
2022-12-01T10:54:50.961Z,7731.2
2022-12-01T10:55:51.090Z,7802.88
2022-12-01T10:56:51.248Z,8048.64
2022-12-01T10:57:51.397Z,7741.44
2022-12-01T10:58:51.549Z,7413.76
2022-12-01T10:59:52.002Z,7633.92
2022-12-01T11:00:59.393Z,8110.08
2022-12-01T11:01:52.047Z,8028.16
2022-12-01T11:02:52.193Z,7951.36
2022-12-01T11:03:52.282Z,7900.16
2022-12-01T11:04:52.401Z,7726.08
2022-12-01T11:05:52.570Z,7884.8
2022-12-01T11:06:52.707Z,7802.88
2022-12-01T11:07:52.924Z,7362.56
2022-12-01T11:08:53.023Z,7362.56
2022-12-01T11:09:53.166Z,7526.4
2022-12-01T11:10:53.306Z,7628.8
2022-12-01T11:11:53.416Z,7592.96
2022-12-01T11:12:53.564Z,7500.8
2022-12-01T11:13:53.713Z,7736.32
2022-12-01T11:14:53.874Z,7884.8
2022-12-01T11:15:54.011Z,7920.64
2022-12-01T11:16:54.252Z,8130.56
2022-12-01T11:17:54.318Z,8381.44
2022-12-01T11:18:54.512Z,8934.399
2022-12-01T11:19:54.698Z,9128.96
2022-12-01T11:20:54.816Z,9303.04
2022-12-01T11:21:54.986Z,9477.12
2022-12-01T11:22:55.085Z,9553.92
2022-12-01T11:23:55.182Z,9512.96
2022-12-01T11:24:55.343Z,9431.04
2022-12-01T11:25:55.488Z,9313.28
2022-12-01T11:26:55.632Z,9154.56
2022-12-01T11:27:55.798Z,9026.56
2022-12-01T11:28:55.937Z,8924.16
2022-12-01T11:29:56.094Z,8857.6
2022-12-01T11:30:56.732Z,8883.2
2022-12-01T11:31:56.368Z,8847.359
2022-12-01T11:32:56.490Z,8796.16
2022-12-01T11:33:56.593Z,8678.399
2022-12-01T11:34:56.755Z,8560.64
2022-12-01T11:35:56.898Z,8765.439
2022-12-01T11:36:57.045Z,9103.359
2022-12-01T11:38:28.109Z,9241.6
2022-12-01T11:38:57.321Z,9292.8
2022-12-01T11:39:57.452Z,9154.56
2022-12-01T11:40:57.623Z,9057.28
2022-12-01T11:41:57.755Z,9000.96
2022-12-01T11:42:57.917Z,8939.52
2022-12-01T11:44:01.707Z,8760.319
2022-12-01T11:44:58.364Z,8606.72
2022-12-01T11:45:58.549Z,8499.2
2022-12-01T11:47:21.423Z,8227.84
2022-12-01T11:47:58.755Z,8048.64
2022-12-01T11:48:58.897Z,7736.32
2022-12-01T11:49:59.004Z,7500.8
2022-12-01T11:50:59.158Z,7449.6
2022-12-01T11:51:59.256Z,7285.76
2022-12-01T11:52:59.418Z,7290.88
2022-12-01T11:53:59.603Z,7316.48
2022-12-01T11:54:59.728Z,7203.84
2022-12-01T11:55:59.879Z,7255.04
2022-12-01T11:57:25.731Z,7147.52
2022-12-01T11:58:00.120Z,6973.44
2022-12-01T11:59:00.227Z,6932.48
2022-12-01T12:00:00.329Z,6983.68
2022-12-01T12:01:00.475Z,7004.16
2022-12-01T12:02:00.751Z,6860.8
2022-12-01T12:03:00.819Z,6712.32
2022-12-01T12:04:00.932Z,6548.48
2022-12-01T12:05:01.521Z,6609.92
2022-12-01T12:06:18.086Z,6804.48
2022-12-01T12:07:01.293Z,6804.48
2022-12-01T12:08:01.473Z,6696.96
2022-12-01T12:09:01.587Z,6743.04
2022-12-01T12:10:01.698Z,6691.84
2022-12-01T12:11:01.868Z,6553.6
2022-12-01T12:12:02.002Z,6522.88
2022-12-01T12:13:02.172Z,6451.2
2022-12-01T12:14:02.273Z,6487.04
2022-12-01T12:15:02.419Z,6400
2022-12-01T12:16:02.556Z,6476.8
2022-12-01T12:17:02.713Z,6461.44
2022-12-01T12:18:02.904Z,6440.96
2022-12-01T12:19:02.964Z,6446.08
2022-12-01T12:20:08.008Z,6502.4
2022-12-01T12:21:03.214Z,6481.92
2022-12-01T12:22:03.364Z,6318.08
2022-12-01T12:23:03.519Z,6364.16
2022-12-01T12:24:03.680Z,6272
2022-12-01T12:25:04.038Z,6307.84
2022-12-01T12:26:03.973Z,6353.92
2022-12-01T12:27:04.153Z,6328.32
2022-12-01T12:28:04.265Z,6241.28
2022-12-01T12:29:07.126Z,6154.24
2022-12-01T12:30:04.593Z,6164.48
2022-12-01T12:31:04.966Z,6103.04
2022-12-01T12:32:04.887Z,5939.2
2022-12-01T12:33:05.027Z,5913.6
2022-12-01T12:34:05.133Z,5898.24
2022-12-01T12:35:05.290Z,5934.08
2022-12-01T12:36:05.439Z,5990.4
2022-12-01T12:37:05.595Z,6087.68
2022-12-01T12:38:05.742Z,6205.44
2022-12-01T12:39:05.884Z,6338.56
2022-12-01T12:40:06.040Z,6420.48
2022-12-01T12:41:06.190Z,6461.44
2022-12-01T12:42:06.350Z,6599.68
2022-12-01T12:43:06.494Z,6712.32
2022-12-01T12:44:06.648Z,6763.52
2022-12-01T12:45:06.801Z,6901.76
2022-12-01T12:46:06.980Z,7014.4
2022-12-01T12:47:07.120Z,7080.96
2022-12-01T12:48:07.253Z,7075.84
2022-12-01T12:49:20.640Z,6973.44